sensor_id;sensor_type;location;lat;lon;timestamp;temperature;humidity
16064;DHT22;8136;53.172;8.256;2023-03-20T00:02:16;10.20;99.90
16064;DHT22;8136;53.172;8.256;2023-03-20T00:04:43;10.30;99.90
16064;DHT22;8136;53.172;8.256;2023-03-20T00:07:11;10.20;99.90
16064;DHT22;8136;53.172;8.256;2023-03-20T00:09:38;10.30;99.90
16064;DHT22;8136;53.172;8.256;2023-03-20T00:12:06;10.40;99.90
16064;DHT22;8136;53.172;8.256;2023-03-20T00:14:33;10.40;99.90
16064;DHT22;8136;53.172;8.256;2023-03-20T00:17:00;10.30;99.90
16064;DHT22;8136;53.172;8.256;2023-03-20T00:19:28;10.30;99.90
16064;DHT22;8136;53.172;8.256;2023-03-20T00:21:55;10.30;99.90
16064;DHT22;8136;53.172;8.256;2023-03-20T00:24:24;10.40;99.90
16064;DHT22;8136;53.172;8.256;2023-03-20T00:26:51;10.40;99.90
16064;DHT22;8136;53.172;8.256;2023-03-20T00:29:21;10.40;99.90
16064;DHT22;8136;53.172;8.256;2023-03-20T00:31:49;10.30;99.90
16064;DHT22;8136;53.172;8.256;2023-03-20T00:34:18;10.30;99.90
16064;DHT22;8136;53.172;8.256;2023-03-20T00:36:45;10.30;99.90
16064;DHT22;8136;53.172;8.256;2023-03-20T00:39:12;10.20;99.90
16064;DHT22;8136;53.172;8.256;2023-03-20T00:41:43;10.20;99.90
16064;DHT22;8136;53.172;8.256;2023-03-20T00:44:21;10.10;99.90
16064;DHT22;8136;53.172;8.256;2023-03-20T00:46:50;10.10;99.90
16064;DHT22;8136;53.172;8.256;2023-03-20T00:49:19;10.00;99.90
16064;DHT22;8136;53.172;8.256;2023-03-20T00:51:48;10.10;99.90
16064;DHT22;8136;53.172;8.256;2023-03-20T00:54:16;10.10;99.90
16064;DHT22;8136;53.172;8.256;2023-03-20T00:56:46;10.00;99.90
16064;DHT22;8136;53.172;8.256;2023-03-20T00:59:17;10.00;99.90
16064;DHT22;8136;53.172;8.256;2023-03-20T01:01:45;10.00;99.90
16064;DHT22;8136;53.172;8.256;2023-03-20T01:04:14;9.70;99.90
16064;DHT22;8136;53.172;8.256;2023-03-20T01:06:41;9.70;99.90
16064;DHT22;8136;53.172;8.256;2023-03-20T01:09:08;9.70;99.90
16064;DHT22;8136;53.172;8.256;2023-03-20T01:11:35;9.60;99.90
16064;DHT22;8136;53.172;8.256;2023-03-20T01:14:04;9.60;99.90
16064;DHT22;8136;53.172;8.256;2023-03-20T01:16:31;9.70;99.90
16064;DHT22;8136;53.172;8.256;2023-03-20T01:18:58;9.80;99.90
16064;DHT22;8136;53.172;8.256;2023-03-20T01:21:25;9.80;99.90
16064;DHT22;8136;53.172;8.256;2023-03-20T01:23:52;9.80;99.90
16064;DHT22;8136;53.172;8.256;2023-03-20T01:26:26;9.80;99.90
16064;DHT22;8136;53.172;8.256;2023-03-20T01:28:54;9.80;99.90
16064;DHT22;8136;53.172;8.256;2023-03-20T01:31:22;9.80;99.90
16064;DHT22;8136;53.172;8.256;2023-03-20T01:33:50;9.80;99.90
16064;DHT22;8136;53.172;8.256;2023-03-20T01:36:20;9.80;99.90
16064;DHT22;8136;53.172;8.256;2023-03-20T01:38:49;9.70;99.90
16064;DHT22;8136;53.172;8.256;2023-03-20T01:41:17;9.70;99.90
16064;DHT22;8136;53.172;8.256;2023-03-20T01:43:44;9.60;99.90
16064;DHT22;8136;53.172;8.256;2023-03-20T01:46:17;9.60;99.90
16064;DHT22;8136;53.172;8.256;2023-03-20T01:49:07;9.60;99.90
16064;DHT22;8136;53.172;8.256;2023-03-20T01:51:34;9.50;99.90
16064;DHT22;8136;53.172;8.256;2023-03-20T01:54:05;9.50;99.90
16064;DHT22;8136;53.172;8.256;2023-03-20T01:56:36;9.40;99.90
16064;DHT22;8136;53.172;8.256;2023-03-20T01:59:09;9.40;99.90
16064;DHT22;8136;53.172;8.256;2023-03-20T02:01:38;9.40;99.90
16064;DHT22;8136;53.172;8.256;2023-03-20T02:04:08;9.40;99.90
16064;DHT22;8136;53.172;8.256;2023-03-20T02:06:36;9.40;99.90
16064;DHT22;8136;53.172;8.256;2023-03-20T02:09:04;9.30;99.90
16064;DHT22;8136;53.172;8.256;2023-03-20T02:11:31;9.30;99.90
16064;DHT22;8136;53.172;8.256;2023-03-20T02:13:59;9.30;99.90
16064;DHT22;8136;53.172;8.256;2023-03-20T02:16:27;9.30;99.90
16064;DHT22;8136;53.172;8.256;2023-03-20T02:18:55;9.30;99.90
16064;DHT22;8136;53.172;8.256;2023-03-20T02:27:33;9.40;99.90
16064;DHT22;8136;53.172;8.256;2023-03-20T02:30:31;9.50;99.90
16064;DHT22;8136;53.172;8.256;2023-03-20T02:33:29;9.50;99.90
16064;DHT22;8136;53.172;8.256;2023-03-20T02:39:46;9.40;99.90
16064;DHT22;8136;53.172;8.256;2023-03-20T02:42:23;9.30;99.90
16064;DHT22;8136;53.172;8.256;2023-03-20T02:44:58;9.20;99.90
16064;DHT22;8136;53.172;8.256;2023-03-20T02:47:31;9.20;99.90
16064;DHT22;8136;53.172;8.256;2023-03-20T02:50:09;9.20;99.90
16064;DHT22;8136;53.172;8.256;2023-03-20T02:52:43;9.20;99.90
16064;DHT22;8136;53.172;8.256;2023-03-20T02:55:16;9.20;99.90
16064;DHT22;8136;53.172;8.256;2023-03-20T02:57:51;9.20;99.90
16064;DHT22;8136;53.172;8.256;2023-03-20T03:00:27;9.20;99.90
16064;DHT22;8136;53.172;8.256;2023-03-20T03:03:00;9.20;99.90
16064;DHT22;8136;53.172;8.256;2023-03-20T03:05:33;9.10;99.90
16064;DHT22;8136;53.172;8.256;2023-03-20T03:08:04;9.20;99.90
16064;DHT22;8136;53.172;8.256;2023-03-20T03:10:35;9.20;99.90
16064;DHT22;8136;53.172;8.256;2023-03-20T03:13:05;9.10;99.90
16064;DHT22;8136;53.172;8.256;2023-03-20T03:15:38;9.10;99.90
16064;DHT22;8136;53.172;8.256;2023-03-20T03:18:10;9.20;99.90
16064;DHT22;8136;53.172;8.256;2023-03-20T03:20:39;9.20;99.90
16064;DHT22;8136;53.172;8.256;2023-03-20T03:23:09;9.10;99.90
16064;DHT22;8136;53.172;8.256;2023-03-20T03:25:42;9.10;99.90
16064;DHT22;8136;53.172;8.256;2023-03-20T03:28:18;9.10;99.90
16064;DHT22;8136;53.172;8.256;2023-03-20T03:30:48;9.10;99.90
16064;DHT22;8136;53.172;8.256;2023-03-20T03:33:21;9.10;99.90
16064;DHT22;8136;53.172;8.256;2023-03-20T03:35:51;9.10;99.90
16064;DHT22;8136;53.172;8.256;2023-03-20T03:38:27;9.10;99.90
16064;DHT22;8136;53.172;8.256;2023-03-20T03:41:05;9.10;99.90
16064;DHT22;8136;53.172;8.256;2023-03-20T03:43:40;9.10;99.90
16064;DHT22;8136;53.172;8.256;2023-03-20T03:46:12;9.10;99.90
16064;DHT22;8136;53.172;8.256;2023-03-20T03:48:46;9.00;99.90
16064;DHT22;8136;53.172;8.256;2023-03-20T03:51:16;9.10;99.90
16064;DHT22;8136;53.172;8.256;2023-03-20T03:53:47;9.10;99.90
16064;DHT22;8136;53.172;8.256;2023-03-20T03:56:20;9.00;99.90
16064;DHT22;8136;53.172;8.256;2023-03-20T03:58:51;9.00;99.90
16064;DHT22;8136;53.172;8.256;2023-03-20T04:01:19;9.00;99.90
16064;DHT22;8136;53.172;8.256;2023-03-20T04:03:53;9.00;99.90
16064;DHT22;8136;53.172;8.256;2023-03-20T04:06:21;9.00;99.90
16064;DHT22;8136;53.172;8.256;2023-03-20T04:08:50;9.00;99.90
16064;DHT22;8136;53.172;8.256;2023-03-20T04:11:20;9.00;99.90
16064;DHT22;8136;53.172;8.256;2023-03-20T04:13:48;9.00;99.90
16064;DHT22;8136;53.172;8.256;2023-03-20T04:16:16;9.00;99.90
16064;DHT22;8136;53.172;8.256;2023-03-20T04:18:44;9.00;99.90
16064;DHT22;8136;53.172;8.256;2023-03-20T04:21:11;8.90;99.90
16064;DHT22;8136;53.172;8.256;2023-03-20T04:23:38;8.90;99.90
16064;DHT22;8136;53.172;8.256;2023-03-20T04:26:05;8.90;99.90
16064;DHT22;8136;53.172;8.256;2023-03-20T04:28:34;8.80;99.90
16064;DHT22;8136;53.172;8.256;2023-03-20T04:31:01;8.80;99.90
16064;DHT22;8136;53.172;8.256;2023-03-20T04:33:28;8.80;99.90
16064;DHT22;8136;53.172;8.256;2023-03-20T04:35:55;8.90;99.90
16064;DHT22;8136;53.172;8.256;2023-03-20T04:38:23;8.80;99.90
16064;DHT22;8136;53.172;8.256;2023-03-20T04:40:50;8.80;99.90
16064;DHT22;8136;53.172;8.256;2023-03-20T04:43:17;8.90;99.90
16064;DHT22;8136;53.172;8.256;2023-03-20T04:45:45;8.80;99.90
16064;DHT22;8136;53.172;8.256;2023-03-20T04:48:12;8.90;99.90
16064;DHT22;8136;53.172;8.256;2023-03-20T04:50:39;8.90;99.90
16064;DHT22;8136;53.172;8.256;2023-03-20T04:53:06;8.90;99.90
16064;DHT22;8136;53.172;8.256;2023-03-20T04:55:33;9.00;99.90
16064;DHT22;8136;53.172;8.256;2023-03-20T04:57:59;9.00;99.90
16064;DHT22;8136;53.172;8.256;2023-03-20T05:00:26;9.00;99.90
16064;DHT22;8136;53.172;8.256;2023-03-20T05:02:54;8.90;99.90
16064;DHT22;8136;53.172;8.256;2023-03-20T05:05:21;8.90;99.90
16064;DHT22;8136;53.172;8.256;2023-03-20T05:07:49;8.90;99.90
16064;DHT22;8136;53.172;8.256;2023-03-20T05:10:16;8.90;99.90
16064;DHT22;8136;53.172;8.256;2023-03-20T05:12:43;8.80;99.90
16064;DHT22;8136;53.172;8.256;2023-03-20T05:15:10;8.80;99.90
16064;DHT22;8136;53.172;8.256;2023-03-20T05:17:37;8.90;99.90
16064;DHT22;8136;53.172;8.256;2023-03-20T05:20:06;8.90;99.90
16064;DHT22;8136;53.172;8.256;2023-03-20T05:22:33;8.90;99.90
16064;DHT22;8136;53.172;8.256;2023-03-20T05:25:00;8.90;99.90
16064;DHT22;8136;53.172;8.256;2023-03-20T05:27:28;8.90;99.90
16064;DHT22;8136;53.172;8.256;2023-03-20T05:29:54;8.90;99.90
16064;DHT22;8136;53.172;8.256;2023-03-20T05:32:21;8.90;99.90
16064;DHT22;8136;53.172;8.256;2023-03-20T05:34:48;8.90;99.90
16064;DHT22;8136;53.172;8.256;2023-03-20T05:37:17;8.80;99.90
16064;DHT22;8136;53.172;8.256;2023-03-20T05:39:43;8.80;99.90
16064;DHT22;8136;53.172;8.256;2023-03-20T05:42:10;8.80;99.90
16064;DHT22;8136;53.172;8.256;2023-03-20T05:44:37;8.90;99.90
16064;DHT22;8136;53.172;8.256;2023-03-20T05:47:04;8.80;99.90
16064;DHT22;8136;53.172;8.256;2023-03-20T05:49:31;8.80;99.90
16064;DHT22;8136;53.172;8.256;2023-03-20T05:51:58;8.80;99.90
16064;DHT22;8136;53.172;8.256;2023-03-20T05:54:26;8.80;99.90
16064;DHT22;8136;53.172;8.256;2023-03-20T05:56:53;8.80;99.90
16064;DHT22;8136;53.172;8.256;2023-03-20T05:59:20;8.80;99.90
16064;DHT22;8136;53.172;8.256;2023-03-20T06:01:47;8.80;99.90
16064;DHT22;8136;53.172;8.256;2023-03-20T06:04:13;8.80;99.90
16064;DHT22;8136;53.172;8.256;2023-03-20T06:06:40;8.80;99.90
16064;DHT22;8136;53.172;8.256;2023-03-20T06:09:07;8.80;99.90
16064;DHT22;8136;53.172;8.256;2023-03-20T06:11:35;8.90;99.90
16064;DHT22;8136;53.172;8.256;2023-03-20T06:14:02;8.90;99.90
16064;DHT22;8136;53.172;8.256;2023-03-20T06:16:29;8.90;99.90
16064;DHT22;8136;53.172;8.256;2023-03-20T18:00:54;8.50;99.90
16064;DHT22;8136;53.172;8.256;2023-03-20T18:03:20;8.40;99.90
16064;DHT22;8136;53.172;8.256;2023-03-20T18:05:48;8.50;99.90
16064;DHT22;8136;53.172;8.256;2023-03-20T18:08:17;8.50;99.90
16064;DHT22;8136;53.172;8.256;2023-03-20T18:10:46;8.50;99.90
16064;DHT22;8136;53.172;8.256;2023-03-20T18:13:12;8.50;99.90
16064;DHT22;8136;53.172;8.256;2023-03-20T18:15:39;8.50;99.90
16064;DHT22;8136;53.172;8.256;2023-03-20T18:18:08;8.50;99.90
16064;DHT22;8136;53.172;8.256;2023-03-20T18:20:37;8.40;99.90
16064;DHT22;8136;53.172;8.256;2023-03-20T18:23:05;8.50;99.90
16064;DHT22;8136;53.172;8.256;2023-03-20T18:25:32;8.50;99.90
16064;DHT22;8136;53.172;8.256;2023-03-20T18:28:02;8.50;99.90
16064;DHT22;8136;53.172;8.256;2023-03-20T18:30:31;8.40;99.90
16064;DHT22;8136;53.172;8.256;2023-03-20T18:32:59;8.50;99.90
16064;DHT22;8136;53.172;8.256;2023-03-20T18:35:27;8.50;99.90
16064;DHT22;8136;53.172;8.256;2023-03-20T18:37:54;8.50;99.90
16064;DHT22;8136;53.172;8.256;2023-03-20T18:40:23;8.50;99.90
16064;DHT22;8136;53.172;8.256;2023-03-20T18:42:51;8.50;99.90
16064;DHT22;8136;53.172;8.256;2023-03-20T18:45:18;8.50;99.90
16064;DHT22;8136;53.172;8.256;2023-03-20T18:47:45;8.50;99.90
16064;DHT22;8136;53.172;8.256;2023-03-20T18:50:22;8.50;99.90
16064;DHT22;8136;53.172;8.256;2023-03-20T18:52:51;8.50;99.90
16064;DHT22;8136;53.172;8.256;2023-03-20T18:55:18;8.50;99.90
16064;DHT22;8136;53.172;8.256;2023-03-20T18:57:45;8.50;99.90
16064;DHT22;8136;53.172;8.256;2023-03-20T19:00:17;8.50;99.90
16064;DHT22;8136;53.172;8.256;2023-03-20T19:02:45;8.50;99.90
16064;DHT22;8136;53.172;8.256;2023-03-20T19:05:12;8.50;99.90
16064;DHT22;8136;53.172;8.256;2023-03-20T19:07:39;8.50;99.90
16064;DHT22;8136;53.172;8.256;2023-03-20T19:10:20;8.50;99.90
16064;DHT22;8136;53.172;8.256;2023-03-20T19:12:48;8.40;99.90
16064;DHT22;8136;53.172;8.256;2023-03-20T19:15:15;8.40;99.90
16064;DHT22;8136;53.172;8.256;2023-03-20T19:17:42;8.40;99.90
16064;DHT22;8136;53.172;8.256;2023-03-20T19:20:28;8.40;99.90
16064;DHT22;8136;53.172;8.256;2023-03-20T19:22:55;8.40;99.90
16064;DHT22;8136;53.172;8.256;2023-03-20T19:25:23;8.40;99.90
16064;DHT22;8136;53.172;8.256;2023-03-20T19:27:50;8.40;99.90
16064;DHT22;8136;53.172;8.256;2023-03-20T19:30:24;8.40;99.90
16064;DHT22;8136;53.172;8.256;2023-03-20T19:32:51;8.40;99.90
16064;DHT22;8136;53.172;8.256;2023-03-20T19:35:18;8.40;99.90
16064;DHT22;8136;53.172;8.256;2023-03-20T19:37:45;8.40;99.90
16064;DHT22;8136;53.172;8.256;2023-03-20T19:40:26;8.40;99.90
16064;DHT22;8136;53.172;8.256;2023-03-20T19:42:53;8.40;99.90
16064;DHT22;8136;53.172;8.256;2023-03-20T19:45:20;8.40;99.90
16064;DHT22;8136;53.172;8.256;2023-03-20T19:47:47;8.40;99.90
16064;DHT22;8136;53.172;8.256;2023-03-20T19:50:26;8.40;99.90
16064;DHT22;8136;53.172;8.256;2023-03-20T19:52:53;8.40;99.90
16064;DHT22;8136;53.172;8.256;2023-03-20T19:55:21;8.40;99.90
16064;DHT22;8136;53.172;8.256;2023-03-20T19:57:49;8.40;99.90
16064;DHT22;8136;53.172;8.256;2023-03-20T20:00:17;8.40;99.90
16064;DHT22;8136;53.172;8.256;2023-03-20T20:02:45;8.40;99.90
16064;DHT22;8136;53.172;8.256;2023-03-20T20:05:17;8.40;99.90
16064;DHT22;8136;53.172;8.256;2023-03-20T20:07:44;8.40;99.90
16064;DHT22;8136;53.172;8.256;2023-03-20T20:10:12;8.40;99.90
16064;DHT22;8136;53.172;8.256;2023-03-20T20:12:38;8.40;99.90
16064;DHT22;8136;53.172;8.256;2023-03-20T20:15:08;8.40;99.90
16064;DHT22;8136;53.172;8.256;2023-03-20T20:17:35;8.50;99.90
16064;DHT22;8136;53.172;8.256;2023-03-20T20:20:03;8.50;99.90
16064;DHT22;8136;53.172;8.256;2023-03-20T20:22:30;8.50;99.90
16064;DHT22;8136;53.172;8.256;2023-03-20T20:24:57;8.50;99.90
16064;DHT22;8136;53.172;8.256;2023-03-20T20:27:24;8.50;99.90
16064;DHT22;8136;53.172;8.256;2023-03-20T20:29:51;8.50;99.90
16064;DHT22;8136;53.172;8.256;2023-03-20T20:32:21;8.50;99.90
16064;DHT22;8136;53.172;8.256;2023-03-20T20:34:48;8.50;99.90
16064;DHT22;8136;53.172;8.256;2023-03-20T20:37:15;8.50;99.90
16064;DHT22;8136;53.172;8.256;2023-03-20T20:39:43;8.50;99.90
16064;DHT22;8136;53.172;8.256;2023-03-20T20:42:10;8.40;99.90
16064;DHT22;8136;53.172;8.256;2023-03-20T20:44:37;8.50;99.90
16064;DHT22;8136;53.172;8.256;2023-03-20T20:47:04;8.40;99.90
16064;DHT22;8136;53.172;8.256;2023-03-20T20:49:32;8.40;99.90
16064;DHT22;8136;53.172;8.256;2023-03-20T20:51:59;8.40;99.90
16064;DHT22;8136;53.172;8.256;2023-03-20T20:54:26;8.40;99.90
16064;DHT22;8136;53.172;8.256;2023-03-20T20:56:53;8.40;99.90
16064;DHT22;8136;53.172;8.256;2023-03-20T20:59:21;8.40;99.90
16064;DHT22;8136;53.172;8.256;2023-03-20T21:01:48;8.40;99.90
16064;DHT22;8136;53.172;8.256;2023-03-20T21:04:15;8.40;99.90
16064;DHT22;8136;53.172;8.256;2023-03-20T21:06:43;8.40;99.90
16064;DHT22;8136;53.172;8.256;2023-03-20T21:09:10;8.40;99.90
16064;DHT22;8136;53.172;8.256;2023-03-20T21:11:37;8.40;99.90
16064;DHT22;8136;53.172;8.256;2023-03-20T21:14:04;8.40;99.90
16064;DHT22;8136;53.172;8.256;2023-03-20T21:16:31;8.40;99.90
16064;DHT22;8136;53.172;8.256;2023-03-20T21:18:57;8.50;99.90
16064;DHT22;8136;53.172;8.256;2023-03-20T21:21:24;8.40;99.90
16064;DHT22;8136;53.172;8.256;2023-03-20T21:23:52;8.50;99.90
16064;DHT22;8136;53.172;8.256;2023-03-20T21:26:19;8.40;99.90
16064;DHT22;8136;53.172;8.256;2023-03-20T21:28:46;8.50;99.90
16064;DHT22;8136;53.172;8.256;2023-03-20T21:31:21;8.40;99.90
16064;DHT22;8136;53.172;8.256;2023-03-20T21:33:51;8.50;99.90
16064;DHT22;8136;53.172;8.256;2023-03-20T21:36:18;8.50;99.90
16064;DHT22;8136;53.172;8.256;2023-03-20T21:38:46;8.50;99.90
16064;DHT22;8136;53.172;8.256;2023-03-20T21:41:14;8.50;99.90
16064;DHT22;8136;53.172;8.256;2023-03-20T21:43:41;8.50;99.90
16064;DHT22;8136;53.172;8.256;2023-03-20T21:46:11;8.60;99.90
16064;DHT22;8136;53.172;8.256;2023-03-20T21:48:38;8.50;99.90
16064;DHT22;8136;53.172;8.256;2023-03-20T21:51:05;8.50;99.90
16064;DHT22;8136;53.172;8.256;2023-03-20T21:53:31;8.60;99.90
16064;DHT22;8136;53.172;8.256;2023-03-20T21:55:58;8.60;99.90
16064;DHT22;8136;53.172;8.256;2023-03-20T21:58:26;8.60;99.90
16064;DHT22;8136;53.172;8.256;2023-03-20T22:00:53;8.60;99.90
16064;DHT22;8136;53.172;8.256;2023-03-20T22:03:21;8.60;99.90
16064;DHT22;8136;53.172;8.256;2023-03-20T22:05:47;8.60;99.90
16064;DHT22;8136;53.172;8.256;2023-03-20T22:08:14;8.50;99.90
16064;DHT22;8136;53.172;8.256;2023-03-20T22:10:46;8.60;99.90
16064;DHT22;8136;53.172;8.256;2023-03-20T22:13:13;8.60;99.90
16064;DHT22;8136;53.172;8.256;2023-03-20T22:15:41;8.60;99.90
16064;DHT22;8136;53.172;8.256;2023-03-20T22:18:08;8.60;99.90
16064;DHT22;8136;53.172;8.256;2023-03-20T22:20:35;8.60;99.90
16064;DHT22;8136;53.172;8.256;2023-03-20T22:23:02;8.60;99.90
16064;DHT22;8136;53.172;8.256;2023-03-20T22:25:28;8.60;99.90
16064;DHT22;8136;53.172;8.256;2023-03-20T22:27:55;8.70;99.90
16064;DHT22;8136;53.172;8.256;2023-03-20T22:30:22;8.70;99.90
16064;DHT22;8136;53.172;8.256;2023-03-20T22:32:50;8.70;99.90
16064;DHT22;8136;53.172;8.256;2023-03-20T22:35:17;8.70;99.90
16064;DHT22;8136;53.172;8.256;2023-03-20T22:37:43;8.70;99.90
16064;DHT22;8136;53.172;8.256;2023-03-20T22:42:38;8.70;99.90
16064;DHT22;8136;53.172;8.256;2023-03-20T22:45:07;8.70;99.90
16064;DHT22;8136;53.172;8.256;2023-03-20T22:47:34;8.70;99.90
16064;DHT22;8136;53.172;8.256;2023-03-20T22:50:03;8.70;99.90
16064;DHT22;8136;53.172;8.256;2023-03-20T22:52:30;8.80;99.90
16064;DHT22;8136;53.172;8.256;2023-03-20T22:54:56;8.70;99.90
16064;DHT22;8136;53.172;8.256;2023-03-20T22:57:24;8.80;99.90
16064;DHT22;8136;53.172;8.256;2023-03-20T22:59:51;8.80;99.90
16064;DHT22;8136;53.172;8.256;2023-03-20T23:02:17;8.70;99.90
16064;DHT22;8136;53.172;8.256;2023-03-20T23:04:44;8.80;99.90
16064;DHT22;8136;53.172;8.256;2023-03-20T23:07:12;8.80;99.90
16064;DHT22;8136;53.172;8.256;2023-03-20T23:09:39;8.80;99.90
16064;DHT22;8136;53.172;8.256;2023-03-20T23:12:06;8.80;99.90
16064;DHT22;8136;53.172;8.256;2023-03-20T23:14:33;8.80;99.90
16064;DHT22;8136;53.172;8.256;2023-03-20T23:17:00;8.80;99.90
16064;DHT22;8136;53.172;8.256;2023-03-20T23:19:26;8.80;99.90
16064;DHT22;8136;53.172;8.256;2023-03-20T23:21:54;8.90;99.90
16064;DHT22;8136;53.172;8.256;2023-03-20T23:24:22;8.80;99.90
16064;DHT22;8136;53.172;8.256;2023-03-20T23:26:49;8.90;99.90
16064;DHT22;8136;53.172;8.256;2023-03-20T23:29:17;8.90;99.90
16064;DHT22;8136;53.172;8.256;2023-03-20T23:31:44;8.80;99.90
16064;DHT22;8136;53.172;8.256;2023-03-20T23:34:11;8.90;99.90
16064;DHT22;8136;53.172;8.256;2023-03-20T23:36:37;8.90;99.90
16064;DHT22;8136;53.172;8.256;2023-03-20T23:39:06;8.90;99.90
16064;DHT22;8136;53.172;8.256;2023-03-20T23:41:34;8.90;99.90
16064;DHT22;8136;53.172;8.256;2023-03-20T23:44:01;8.90;99.90
16064;DHT22;8136;53.172;8.256;2023-03-20T23:46:28;8.90;99.90
16064;DHT22;8136;53.172;8.256;2023-03-20T23:48:55;8.90;99.90
16064;DHT22;8136;53.172;8.256;2023-03-20T23:51:22;8.90;99.90
16064;DHT22;8136;53.172;8.256;2023-03-20T23:53:49;8.90;99.90
16064;DHT22;8136;53.172;8.256;2023-03-20T23:56:16;8.90;99.90
16064;DHT22;8136;53.172;8.256;2023-03-20T23:58:45;8.90;99.90
